createdAt,value
2018-03-01T00:01:49.711Z,28.80
2018-03-01T00:04:17.210Z,28.80
2018-03-01T00:06:44.678Z,28.80
2018-03-01T00:09:12.175Z,28.70
2018-03-01T00:11:39.672Z,28.50
2018-03-01T00:14:07.941Z,28.40
2018-03-01T00:16:36.172Z,28.50
2018-03-01T00:19:03.683Z,28.50
2018-03-01T00:21:31.957Z,28.50
2018-03-01T00:24:00.204Z,28.50
2018-03-01T00:26:27.703Z,28.60
2018-03-01T00:28:55.172Z,28.70
2018-03-01T00:31:22.708Z,28.60
2018-03-01T00:33:50.973Z,28.60
2018-03-01T00:36:18.683Z,28.40
2018-03-01T00:38:46.200Z,28.60
2018-03-01T00:41:13.698Z,28.80
2018-03-01T00:43:41.171Z,28.80
2018-03-01T00:46:08.643Z,28.80
2018-03-01T00:48:36.151Z,29.00
2018-03-01T00:51:03.635Z,28.70
2018-03-01T00:53:31.146Z,28.70
2018-03-01T00:55:59.399Z,28.80
2018-03-01T00:58:26.895Z,28.80
2018-03-01T01:00:55.135Z,29.10
2018-03-01T01:03:22.650Z,28.90
2018-03-01T01:05:50.115Z,28.90
2018-03-01T01:08:17.624Z,28.70
2018-03-01T01:10:45.111Z,28.90
2018-03-01T01:13:13.387Z,29.20
2018-03-01T01:15:41.619Z,29.00
2018-03-01T01:18:09.122Z,29.00
2018-03-01T01:20:37.358Z,29.00
2018-03-01T01:23:04.882Z,29.00
2018-03-01T01:25:32.378Z,29.20
2018-03-01T01:27:59.903Z,29.20
2018-03-01T01:30:27.375Z,29.20
2018-03-01T01:32:54.899Z,29.20
2018-03-01T01:35:22.490Z,29.10
2018-03-01T01:37:49.960Z,28.80
2018-03-01T01:40:17.458Z,29.10
2018-03-01T01:42:44.974Z,29.00
2018-03-01T01:45:12.482Z,28.90
2018-03-01T01:47:40.730Z,28.80
2018-03-01T01:50:08.232Z,28.90
2018-03-01T01:52:35.714Z,28.90
2018-03-01T01:55:03.223Z,29.10
2018-03-01T01:57:30.699Z,29.20
2018-03-01T01:59:58.941Z,29.10
2018-03-01T02:02:26.444Z,29.10
2018-03-01T02:04:54.721Z,29.20
2018-03-01T02:07:22.991Z,29.20
2018-03-01T02:09:51.252Z,29.20
2018-03-01T02:12:18.728Z,29.20
2018-03-01T02:14:47.002Z,29.20
2018-03-01T02:17:15.240Z,29.40
2018-03-01T02:19:42.747Z,29.40
2018-03-01T02:22:11.019Z,29.40
2018-03-01T02:24:38.535Z,29.40
2018-03-01T02:27:06.028Z,29.40
2018-03-01T02:29:34.292Z,29.60
2018-03-01T02:32:01.808Z,29.60
2018-03-01T02:34:29.295Z,29.60
2018-03-01T02:36:56.816Z,29.60
2018-03-01T02:39:24.293Z,29.80
2018-03-01T02:41:51.781Z,29.80
2018-03-01T02:44:19.283Z,30.00
2018-03-01T02:46:46.851Z,30.00
2018-03-01T02:49:14.346Z,30.00
2018-03-01T02:51:41.856Z,30.20
2018-03-01T02:54:09.354Z,30.40
2018-03-01T02:56:36.850Z,30.80
2018-03-01T02:59:05.142Z,30.60
2018-03-01T03:01:32.649Z,30.60
2018-03-01T03:04:00.154Z,30.20
2018-03-01T03:06:28.391Z,30.40
2018-03-01T03:08:55.891Z,30.20
2018-03-01T03:11:24.145Z,30.40
2018-03-01T03:13:51.632Z,30.40
2018-03-01T03:16:19.899Z,30.80
2018-03-01T03:18:48.135Z,30.70
2018-03-01T03:21:15.626Z,30.80
2018-03-01T03:23:43.866Z,31.10
2018-03-01T03:26:12.287Z,31.10
2018-03-01T03:28:39.761Z,31.40
2018-03-01T03:31:08.027Z,30.70
2018-03-01T03:33:36.275Z,31.20
2018-03-01T03:36:03.791Z,31.20
2018-03-01T03:38:31.273Z,31.40
2018-03-01T03:40:58.743Z,31.10
2018-03-01T03:43:26.245Z,31.30
2018-03-01T03:45:53.718Z,31.00
2018-03-01T03:48:21.222Z,31.40
2018-03-01T03:50:49.474Z,30.90
2018-03-01T03:53:16.981Z,30.90
2018-03-01T03:55:45.221Z,31.50
2018-03-01T03:58:12.732Z,31.50
2018-03-01T04:00:41.002Z,31.90
2018-03-01T04:03:09.246Z,31.60
2018-03-01T04:05:36.767Z,31.50
2018-03-01T04:08:04.241Z,31.80
2018-03-01T04:10:32.496Z,31.50
2018-03-01T04:13:00.210Z,32.20
2018-03-01T04:15:27.712Z,32.00
2018-03-01T04:17:55.187Z,31.90
2018-03-01T04:20:22.701Z,32.00
2018-03-01T04:22:50.936Z,31.60
2018-03-01T04:25:18.408Z,31.60
2018-03-01T04:27:45.915Z,31.60
2018-03-01T04:30:13.402Z,31.20
2018-03-01T04:32:41.467Z,31.50
2018-03-01T04:35:08.955Z,31.80
2018-03-01T04:37:36.472Z,31.70
2018-03-01T04:40:03.963Z,32.00
2018-03-01T04:42:31.471Z,31.60
2018-03-01T04:44:59.746Z,31.90
2018-03-01T04:47:27.994Z,32.00
2018-03-01T04:49:55.494Z,32.00
2018-03-01T04:52:22.995Z,32.00
2018-03-01T04:54:50.509Z,32.10
2018-03-01T04:57:18.759Z,31.90
2018-03-01T04:59:46.254Z,31.90
2018-03-01T05:02:13.739Z,31.90
2018-03-01T05:04:41.239Z,32.70
2018-03-01T05:07:08.758Z,31.90
2018-03-01T05:09:36.242Z,32.50
2018-03-01T05:12:03.763Z,32.60
2018-03-01T05:14:31.241Z,32.70
2018-03-01T05:16:58.731Z,32.20
2018-03-01T05:19:26.232Z,32.30
2018-03-01T05:21:53.746Z,32.10
2018-03-01T05:24:21.252Z,32.40
2018-03-01T05:26:48.743Z,31.90
2018-03-01T05:29:16.334Z,32.20
2018-03-01T05:31:43.822Z,32.70
2018-03-01T05:34:11.335Z,33.10
2018-03-01T05:36:38.814Z,33.10
2018-03-01T05:39:07.073Z,32.60
2018-03-01T05:41:34.575Z,32.60
2018-03-01T05:44:02.069Z,32.70
2018-03-01T05:46:29.570Z,32.90
2018-03-01T05:48:57.810Z,32.30
2018-03-01T05:51:25.311Z,32.30
2018-03-01T05:53:53.564Z,33.10
2018-03-01T05:56:21.099Z,32.90
2018-03-01T05:58:48.574Z,32.40
2018-03-01T06:01:16.065Z,32.50
2018-03-01T06:03:44.366Z,32.20
2018-03-01T06:06:11.842Z,32.20
2018-03-01T06:08:39.355Z,32.70
2018-03-01T06:11:07.605Z,32.80
2018-03-01T06:13:35.131Z,32.60
2018-03-01T06:16:02.604Z,32.40
2018-03-01T06:18:30.110Z,32.40
2018-03-01T06:20:58.592Z,32.60
2018-03-01T06:23:26.858Z,32.70
2018-03-01T06:25:55.127Z,31.90
2018-03-01T06:28:22.610Z,31.90
2018-03-01T06:30:50.891Z,31.80
2018-03-01T06:33:19.141Z,32.10
2018-03-01T06:35:46.651Z,32.10
2018-03-01T06:38:14.129Z,31.40
2018-03-01T06:40:41.655Z,31.50
2018-03-01T06:43:09.155Z,31.90
2018-03-01T06:45:36.651Z,31.90
2018-03-01T06:48:04.931Z,31.50
2018-03-01T06:50:33.220Z,31.70
2018-03-01T06:53:00.698Z,31.70
2018-03-01T06:55:28.185Z,31.60
2018-03-01T06:57:55.678Z,31.40
2018-03-01T07:00:23.931Z,31.70
2018-03-01T07:02:51.435Z,31.70
2018-03-01T07:05:18.906Z,31.40
2018-03-01T07:07:46.441Z,31.60
2018-03-01T07:10:14.722Z,31.30
2018-03-01T07:12:42.244Z,31.30
2018-03-01T07:15:09.732Z,32.00
2018-03-01T07:17:37.966Z,31.40
2018-03-01T07:20:05.450Z,31.40
2018-03-01T07:22:33.752Z,31.30
2018-03-01T07:25:02.014Z,31.10
2018-03-01T07:27:29.491Z,30.90
2018-03-01T07:29:57.743Z,31.60
2018-03-01T07:32:25.259Z,31.40
2018-03-01T07:34:52.809Z,30.80
2018-03-01T07:37:20.312Z,30.90
2018-03-01T07:39:47.790Z,31.00
2018-03-01T07:42:16.095Z,31.00
2018-03-01T07:44:43.586Z,31.10
2018-03-01T07:47:11.078Z,31.00
2018-03-01T07:49:38.570Z,31.40
2018-03-01T07:52:06.084Z,31.60
2018-03-01T07:54:33.583Z,31.30
2018-03-01T07:57:01.086Z,31.00
2018-03-01T07:59:28.613Z,31.40
2018-03-01T08:01:56.093Z,34.80
2018-03-01T08:04:23.615Z,42.60
2018-03-01T08:06:51.091Z,38.80
2018-03-01T08:09:18.582Z,39.80
2018-03-01T08:11:46.086Z,39.70
2018-03-01T08:14:13.620Z,40.10
2018-03-01T08:16:41.112Z,41.00
2018-03-01T08:19:09.392Z,41.40
2018-03-01T08:21:37.639Z,40.90
2018-03-01T08:24:05.931Z,40.00
2018-03-01T08:26:34.195Z,39.80
2018-03-01T08:29:03.089Z,40.30
2018-03-01T08:31:30.619Z,40.10
2018-03-01T08:33:58.116Z,38.90
2018-03-01T08:36:25.601Z,39.10
2018-03-01T08:38:53.106Z,40.70
2018-03-01T08:41:20.623Z,40.10
2018-03-01T08:43:48.127Z,39.50
2018-03-01T08:46:15.622Z,40.00
2018-03-01T08:48:43.222Z,39.20
2018-03-01T08:51:11.394Z,38.90
2018-03-01T08:53:38.946Z,38.80
2018-03-01T08:56:06.410Z,37.90
2018-03-01T08:58:33.919Z,38.00
2018-03-01T09:01:02.210Z,38.10
2018-03-01T09:03:30.483Z,37.90
2018-03-01T09:05:57.986Z,37.90
2018-03-01T09:08:25.501Z,37.90
2018-03-01T09:10:53.768Z,37.70
2018-03-01T09:13:22.009Z,37.90
2018-03-01T09:15:49.510Z,37.90
2018-03-01T09:18:17.755Z,37.80
2018-03-01T09:20:45.281Z,37.80
2018-03-01T09:23:12.760Z,37.10
2018-03-01T09:25:40.251Z,36.60
2018-03-01T09:28:08.542Z,36.30
2018-03-01T09:30:36.808Z,36.00
2018-03-01T09:33:05.115Z,36.60
2018-03-01T09:35:32.631Z,36.60
2018-03-01T09:38:00.890Z,36.50
2018-03-01T09:40:28.372Z,36.60
2018-03-01T09:42:55.834Z,36.90
2018-03-01T09:45:24.102Z,33.30
2018-03-01T09:47:52.345Z,32.70
2018-03-01T09:50:19.885Z,32.70
2018-03-01T09:52:47.350Z,33.20
2018-03-01T09:55:14.867Z,33.30
2018-03-01T09:57:42.391Z,32.40
2018-03-01T10:00:09.884Z,32.40
2018-03-01T10:02:37.394Z,32.30
2018-03-01T10:05:04.948Z,31.60
2018-03-01T10:07:33.183Z,32.00
2018-03-01T10:10:01.402Z,32.00
2018-03-01T10:12:28.912Z,32.00
2018-03-01T10:14:56.402Z,31.60
2018-03-01T10:17:23.920Z,32.00
2018-03-01T10:19:52.158Z,32.10
2018-03-01T10:22:19.661Z,32.10
2018-03-01T10:24:47.175Z,31.80
2018-03-01T10:27:14.675Z,31.90
2018-03-01T10:29:47.859Z,31.50
2018-03-01T10:32:15.394Z,31.60
2018-03-01T10:34:42.880Z,31.80
2018-03-01T10:37:11.126Z,31.60
2018-03-01T10:39:38.616Z,31.60
2018-03-01T10:42:06.106Z,31.70
2018-03-01T10:44:34.395Z,31.20
2018-03-01T10:47:01.863Z,31.20
2018-03-01T10:49:29.358Z,31.60
2018-03-01T10:51:58.350Z,31.30
2018-03-01T10:54:25.815Z,31.30
2018-03-01T10:56:54.093Z,32.10
2018-03-01T10:59:21.575Z,32.10
2018-03-01T11:01:51.643Z,31.70
2018-03-01T11:04:19.128Z,31.70
2018-03-01T11:06:48.177Z,32.10
2018-03-01T11:09:15.663Z,32.10
2018-03-01T11:11:43.161Z,32.00
2018-03-01T11:14:10.659Z,32.00
2018-03-01T11:16:38.145Z,31.80
2018-03-01T11:19:05.643Z,32.30
2018-03-01T11:21:33.895Z,31.90
2018-03-01T11:24:02.199Z,32.40
2018-03-01T11:26:30.456Z,32.80
2018-03-01T11:28:58.736Z,32.80
2018-03-01T11:31:26.226Z,32.80
2018-03-01T11:33:54.516Z,33.90
2018-03-01T11:36:22.044Z,34.00
2018-03-01T11:38:50.274Z,32.50
2018-03-01T11:41:17.766Z,32.50
2018-03-01T11:43:45.231Z,32.90
2018-03-01T11:46:13.515Z,32.60
2018-03-01T11:48:41.787Z,32.50
2018-03-01T11:51:09.288Z,32.40
2018-03-01T11:53:36.824Z,32.10
2018-03-01T11:56:04.382Z,31.60
2018-03-01T11:58:32.632Z,32.20
2018-03-01T12:01:00.139Z,32.20
2018-03-01T12:03:27.630Z,32.20
2018-03-01T12:05:55.122Z,31.90
2018-03-01T12:08:23.420Z,31.50
2018-03-01T12:10:50.911Z,31.50
2018-03-01T12:13:18.400Z,31.40
2018-03-01T12:15:45.936Z,31.60
2018-03-01T12:18:13.464Z,31.70
2018-03-01T12:20:40.944Z,31.70
2018-03-01T12:23:08.490Z,31.70
2018-03-01T12:25:36.006Z,31.80
2018-03-01T12:28:03.485Z,32.40
2018-03-01T12:30:31.773Z,32.10
2018-03-01T12:32:59.264Z,32.10
2018-03-01T12:35:26.771Z,32.20
2018-03-01T12:37:55.055Z,32.60
2018-03-01T12:40:23.286Z,32.40
2018-03-01T12:42:50.792Z,32.20
2018-03-01T12:45:19.043Z,32.50
2018-03-01T12:47:46.566Z,32.50
2018-03-01T12:50:14.057Z,32.00
2018-03-01T12:52:41.555Z,32.20
2018-03-01T12:55:09.075Z,32.60
2018-03-01T12:57:36.570Z,32.20
2018-03-01T13:00:04.104Z,32.60
2018-03-01T13:02:31.601Z,32.70
2018-03-01T13:04:59.107Z,33.00
2018-03-01T13:07:27.357Z,32.90
2018-03-01T13:09:54.886Z,32.90
2018-03-01T13:12:22.368Z,33.00
2018-03-01T13:14:49.843Z,33.60
2018-03-01T13:17:17.351Z,33.00
2018-03-01T13:19:44.848Z,33.30
2018-03-01T13:22:12.379Z,33.90
2018-03-01T13:24:39.876Z,33.50
2018-03-01T13:27:07.437Z,33.80
2018-03-01T13:29:34.918Z,33.80
2018-03-01T13:32:06.495Z,33.60
2018-03-01T13:34:36.578Z,33.20
2018-03-01T13:37:04.132Z,33.20
2018-03-01T13:39:31.595Z,33.00
2018-03-01T13:42:01.782Z,32.50
2018-03-01T13:44:29.272Z,32.80
2018-03-01T13:46:57.719Z,33.40
2018-03-01T13:49:25.236Z,33.20
2018-03-01T13:51:52.719Z,33.10
2018-03-01T13:54:20.249Z,32.60
2018-03-01T13:56:47.702Z,33.00
2018-03-01T13:59:15.277Z,33.00
2018-03-01T14:01:42.762Z,32.70
2018-03-01T14:04:10.263Z,32.80
2018-03-01T14:06:41.380Z,32.40
2018-03-01T14:09:08.870Z,32.60
2018-03-01T14:11:36.380Z,32.50
2018-03-01T14:17:06.543Z,32.70
2018-03-01T14:22:55.752Z,32.20
2018-03-01T14:25:23.274Z,32.50
2018-03-01T14:27:50.788Z,32.50
2018-03-01T14:30:19.075Z,31.80
2018-03-01T14:32:46.566Z,32.10
2018-03-01T14:35:14.087Z,32.10
2018-03-01T14:37:41.703Z,32.10
2018-03-01T14:40:09.194Z,32.40
2018-03-01T14:42:36.698Z,31.70
2018-03-01T14:45:04.942Z,32.10
2018-03-01T14:47:32.460Z,32.10
2018-03-01T14:50:00.036Z,32.20
2018-03-01T14:52:27.536Z,32.00
2018-03-01T14:54:55.010Z,31.70
2018-03-01T14:57:22.537Z,31.80
2018-03-01T14:59:50.051Z,32.20
2018-03-01T15:02:18.325Z,31.80
2018-03-01T15:04:45.830Z,31.80
2018-03-01T15:07:13.328Z,31.80
2018-03-01T15:09:41.620Z,32.20
2018-03-01T15:12:09.079Z,32.10
2018-03-01T15:14:36.591Z,32.70
2018-03-01T15:17:04.075Z,32.10
2018-03-01T15:19:32.335Z,32.40
2018-03-01T15:21:59.867Z,32.30
2018-03-01T15:24:27.347Z,32.30
2018-03-01T15:26:54.894Z,31.70
2018-03-01T15:29:22.397Z,31.70
2018-03-01T15:31:50.663Z,32.00
2018-03-01T15:34:18.946Z,32.60
2018-03-01T15:36:47.207Z,32.40
2018-03-01T15:39:15.476Z,32.10
2018-03-01T15:41:43.798Z,32.10
2018-03-01T15:44:11.328Z,33.00
2018-03-01T15:46:39.584Z,32.40
2018-03-01T15:49:07.111Z,32.40
2018-03-01T15:51:34.594Z,32.00
2018-03-01T15:54:02.122Z,32.50
2018-03-01T15:56:29.605Z,32.40
2018-03-01T15:58:57.091Z,33.00
2018-03-01T16:01:24.619Z,33.60
2018-03-01T16:03:52.082Z,33.10
2018-03-01T16:06:19.652Z,32.50
2018-03-01T16:08:47.099Z,32.90
2018-03-01T16:11:14.619Z,33.20
2018-03-01T16:13:42.122Z,33.50
2018-03-01T16:16:09.635Z,33.10
2018-03-01T16:18:37.113Z,32.60
2018-03-01T16:21:04.619Z,33.10
2018-03-01T16:23:32.104Z,33.10
2018-03-01T16:25:59.594Z,33.20
2018-03-01T16:28:27.158Z,33.20
2018-03-01T16:30:54.724Z,33.60
2018-03-01T16:33:22.236Z,33.30
2018-03-01T16:35:50.512Z,33.20
2018-03-01T16:38:19.543Z,33.30
2018-03-01T16:40:47.039Z,33.30
2018-03-01T16:43:15.329Z,33.80
2018-03-01T16:45:42.812Z,33.80
2018-03-01T16:48:10.295Z,33.50
2018-03-01T16:50:37.806Z,33.30
2018-03-01T16:53:06.086Z,33.20
2018-03-01T16:55:34.376Z,33.30
2018-03-01T16:58:02.630Z,33.50
2018-03-01T17:00:30.160Z,33.50
2018-03-01T17:02:57.642Z,33.70
2018-03-01T17:05:25.147Z,33.60
2018-03-01T17:07:52.681Z,33.40
2018-03-01T17:10:20.915Z,33.30
2018-03-01T17:12:48.413Z,33.30
2018-03-01T17:15:16.704Z,33.30
2018-03-01T17:17:44.939Z,33.70
2018-03-01T17:20:12.471Z,33.70
2018-03-01T17:22:39.967Z,33.80
2018-03-01T17:25:07.502Z,33.60
2018-03-01T17:27:34.979Z,33.20
2018-03-01T17:30:02.472Z,33.20
2018-03-01T17:32:30.750Z,32.60
2018-03-01T17:34:58.994Z,32.50
2018-03-01T17:37:26.507Z,32.50
2018-03-01T17:39:54.035Z,32.60
2018-03-01T17:42:22.287Z,32.20
2018-03-01T17:44:49.780Z,32.20
2018-03-01T17:47:18.049Z,32.30
2018-03-01T17:49:46.292Z,31.80
2018-03-01T17:52:13.774Z,31.80
2018-03-01T17:54:41.279Z,31.50
2018-03-01T17:57:08.771Z,31.80
2018-03-01T17:59:36.277Z,31.70
2018-03-01T18:02:03.767Z,31.60
2018-03-01T18:04:31.327Z,31.70
2018-03-01T18:06:58.832Z,31.60
2018-03-01T18:09:27.135Z,31.60
2018-03-01T18:11:54.595Z,31.60
2018-03-01T18:14:22.121Z,31.90
2018-03-01T18:16:50.428Z,32.00
2018-03-01T18:19:17.934Z,32.00
2018-03-01T18:21:45.463Z,31.70
2018-03-01T18:24:12.967Z,31.90
2018-03-01T18:26:40.495Z,32.30
2018-03-01T18:29:07.968Z,32.00
2018-03-01T18:31:35.453Z,32.00
2018-03-01T18:34:02.969Z,31.90
2018-03-01T18:36:30.458Z,32.60
2018-03-01T18:38:57.955Z,32.10
2018-03-01T18:41:25.429Z,32.00
2018-03-01T18:43:52.956Z,32.40
2018-03-01T18:46:21.210Z,32.20
2018-03-01T18:48:50.207Z,32.40
2018-03-01T18:51:17.817Z,32.40
2018-03-01T18:53:45.311Z,32.70
2018-03-01T18:56:12.832Z,33.00
2018-03-01T18:58:40.384Z,32.00
2018-03-01T19:01:07.865Z,32.00
2018-03-01T19:03:35.365Z,31.90
2018-03-01T19:06:02.909Z,32.10
2018-03-01T19:08:30.406Z,32.60
2018-03-01T19:10:58.685Z,32.00
2018-03-01T19:13:26.964Z,32.40
2018-03-01T19:15:55.223Z,32.00
2018-03-01T19:18:22.727Z,32.00
2018-03-01T19:20:50.208Z,31.80
2018-03-01T19:23:17.745Z,32.20
2018-03-01T19:25:45.238Z,32.50
2018-03-01T19:28:12.735Z,31.70
2018-03-01T19:30:41.034Z,31.80
2018-03-01T19:33:08.502Z,31.80
2018-03-01T19:35:36.003Z,31.80
2018-03-01T19:38:03.499Z,31.60
2018-03-01T19:40:31.018Z,31.70
2018-03-01T19:42:58.537Z,31.90
2018-03-01T19:45:26.051Z,31.30
2018-03-01T19:47:54.304Z,31.90
2018-03-01T19:50:22.618Z,32.20
2018-03-01T19:52:50.875Z,31.60
2018-03-01T19:55:19.144Z,31.60
2018-03-01T19:57:47.426Z,31.60
2018-03-01T20:00:14.960Z,31.60
2018-03-01T20:02:42.432Z,31.60
2018-03-01T20:05:09.904Z,31.50
2018-03-01T20:07:37.917Z,32.00
2018-03-01T20:10:05.402Z,32.10
2018-03-01T20:12:32.947Z,32.00
2018-03-01T20:15:00.432Z,31.60
2018-03-01T20:17:27.940Z,31.60
2018-03-01T20:19:55.419Z,31.70
2018-03-01T20:22:23.005Z,32.00
2018-03-01T20:24:51.217Z,32.00
2018-03-01T20:27:19.535Z,32.00
2018-03-01T20:29:47.019Z,32.00
2018-03-01T20:32:14.519Z,32.00
2018-03-01T20:34:42.825Z,32.10
2018-03-01T20:37:10.304Z,32.10
2018-03-01T20:39:37.841Z,31.80
2018-03-01T20:42:05.322Z,31.60
2018-03-01T20:44:32.838Z,32.10
2018-03-01T20:47:01.096Z,31.70
2018-03-01T20:49:29.381Z,31.80
2018-03-01T20:51:57.618Z,31.50
2018-03-01T20:54:25.172Z,31.70
2018-03-01T20:56:52.639Z,31.70
2018-03-01T20:59:20.150Z,31.70
2018-03-01T21:01:48.449Z,31.70
2018-03-01T21:04:15.936Z,31.70
2018-03-01T21:06:43.432Z,31.60
2018-03-01T21:09:11.704Z,32.10
2018-03-01T21:11:40.010Z,32.60
2018-03-01T21:14:07.499Z,32.40
2018-03-01T21:16:34.991Z,32.50
2018-03-01T21:19:02.502Z,32.30
2018-03-01T21:21:29.980Z,32.10
2018-03-01T21:23:57.493Z,32.00
2018-03-01T21:26:24.983Z,32.30
2018-03-01T21:28:52.509Z,32.00
2018-03-01T21:31:20.774Z,32.30
2018-03-01T21:33:49.071Z,32.40
2018-03-01T21:36:16.562Z,32.50
2018-03-01T21:38:44.069Z,32.40
2018-03-01T21:41:12.319Z,32.60
2018-03-01T21:43:40.582Z,32.60
2018-03-01T21:46:08.062Z,32.60
2018-03-01T21:48:35.583Z,32.30
2018-03-01T21:51:03.058Z,32.50
2018-03-01T21:53:30.540Z,32.50
2018-03-01T21:55:59.549Z,32.70
2018-03-01T21:58:27.807Z,32.70
2018-03-01T22:00:56.817Z,32.60
2018-03-01T22:03:25.066Z,32.70
2018-03-01T22:05:52.583Z,32.60
2018-03-01T22:08:20.085Z,32.60
2018-03-01T22:10:47.571Z,32.60
2018-03-01T22:13:15.873Z,32.60
2018-03-01T22:15:43.360Z,32.60
2018-03-01T22:18:10.848Z,33.10
2018-03-01T22:20:39.850Z,33.10
2018-03-01T22:23:07.372Z,33.10
2018-03-01T22:25:34.838Z,33.10
2018-03-01T22:28:02.362Z,33.10
2018-03-01T22:30:29.851Z,33.20
2018-03-01T22:32:57.360Z,33.00
2018-03-01T22:35:25.589Z,32.90
2018-03-01T22:37:53.100Z,32.90
2018-03-01T22:40:21.390Z,33.10
2018-03-01T22:42:48.850Z,33.10
2018-03-01T22:45:16.376Z,33.50
2018-03-01T22:47:43.838Z,33.30
2018-03-01T22:50:12.111Z,33.50
2018-03-01T22:52:39.604Z,33.50
2018-03-01T22:55:07.074Z,33.70
2018-03-01T22:57:34.594Z,33.60
2018-03-01T23:00:02.843Z,33.90
2018-03-01T23:02:30.342Z,33.90
2018-03-01T23:04:58.591Z,33.60
2018-03-01T23:07:26.109Z,33.60
2018-03-01T23:09:53.571Z,33.80
2018-03-01T23:12:21.079Z,33.90
2018-03-01T23:14:49.366Z,34.10
2018-03-01T23:17:17.612Z,34.00
2018-03-01T23:19:45.149Z,34.00
2018-03-01T23:22:12.623Z,34.00
2018-03-01T23:24:40.119Z,34.10
2018-03-01T23:27:08.371Z,34.20
2018-03-01T23:29:35.874Z,34.20
2018-03-01T23:32:03.347Z,34.30
2018-03-01T23:34:30.847Z,34.30
2018-03-01T23:36:58.352Z,34.30
2018-03-01T23:39:25.835Z,34.50
2018-03-01T23:41:53.331Z,34.30
2018-03-01T23:44:22.320Z,34.40
2018-03-01T23:46:49.817Z,34.40
2018-03-01T23:49:17.319Z,34.80
2018-03-01T23:51:44.817Z,35.10
2018-03-01T23:54:13.063Z,34.60
2018-03-01T23:56:40.563Z,34.60
2018-03-01T23:59:08.791Z,34.80
